Time;durP1;ratioP1;P1;durP2;ratioP2;P2;SDS_P1;SDS_P2;PMS_P1;PMS_P2;Temp;Humidity;BMP_temperature;BMP_pressure;BME280_temperature;BME280_humidity;BME280_pressure;Samples;Min_cycle;Max_cycle;Signal;HPM_P1;HPM_P2
2024/04/18 00:01:15;;;;;;;;;;;;;;;;;;5528678;26;19943;-73
2024/04/18 00:03:43;;;;;;;;;;;;;;;;;;5496048;26;19927;-73
2024/04/18 00:06:09;;;;;;;;;;;;;;;;;;5528093;26;19936;-73
2024/04/18 00:08:35;;;;;;;;;;;;;;;;;;5528678;26;19927;-73
2024/04/18 00:11:01;;;;;;;;;;;;;;;;;;5495851;26;19939;-73
2024/04/18 00:13:27;;;;;;;;;;;;;;;;;;5495419;26;20251;-73
2024/04/18 00:15:53;;;;;;;;;;;;;;;;;;5495783;26;19927;-73
2024/04/18 00:18:19;;;;;;;;;;;;;;;;;;5528167;26;19959;-73
2024/04/18 00:20:44;;;;;;;;;;;;;;;;;;5527262;26;19938;-72
2024/04/18 00:23:10;;;;;;;;;;;;;;;;;;5528447;26;20367;-73
2024/04/18 00:25:36;;;;;;;;;;;;;;;;;;5495265;26;20256;-72
2024/04/18 00:28:02;;;;;;;;;;;;;;;;;;5495674;26;19938;-72
2024/04/18 00:30:28;;;;;;;;;;;;;;;;;;5528244;26;19927;-72
2024/04/18 00:32:54;;;;;;;;;;;;;;;;;;5527854;26;19938;-73
2024/04/18 00:35:20;;;;;;;;;;;;;;;;;;5527896;26;19936;-73
2024/04/18 00:37:46;;;;;;;;;;;;;;;;;;5528479;26;19936;-73
2024/04/18 00:40:12;;;;;;;;;;;;;;;;;;5495356;26;19927;-73
2024/04/18 00:42:38;;;;;;;;;;;;;;;;;;5495701;26;19928;-73
2024/04/18 00:45:04;;;;;;;;;;;;;;;;;;5528430;26;20364;-73
2024/04/18 00:47:30;;;;;;;;;;;;;;;;;;5527941;26;19927;-73
2024/04/18 00:49:56;;;;;;;;;;;;;;;;;;5528225;26;19995;-73
2024/04/18 00:52:22;;;;;;;;;;;;;;;;;;5528367;26;19927;-73
2024/04/18 00:54:48;;;;;;;;;;;;;;;;;;5527806;26;19927;-73
2024/04/18 00:57:14;;;;;;;;;;;;;;;;;;5495405;26;19935;-73
2024/04/18 00:59:39;;;;;;;;;;;;;;;;;;5528081;26;20005;-73
2024/04/18 01:02:05;;;;;;;;;;;;;;;;;;5494989;26;20344;-72
2024/04/18 01:04:31;;;;;;;;;;;;;;;;;;5528143;26;19935;-73
2024/04/18 01:06:57;;;;;;;;;;;;;;;;;;5495476;26;19927;-73
2024/04/18 01:09:23;;;;;;;;;;;;;;;;;;5527523;26;19927;-72
2024/04/18 01:11:49;;;;;;;;;;;;;;;;;;5527983;26;19935;-73
2024/04/18 01:14:15;;;;;;;;;;;;;;;;;;5528019;26;20364;-73
2024/04/18 01:16:41;;;;;;;;;;;;;;;;;;5527360;26;19928;-73
2024/04/18 01:19:07;;;;;;;;;;;;;;;;;;5527792;26;19939;-73
2024/04/18 01:21:33;;;;;;;;;;;;;;;;;;5527395;26;19938;-73
2024/04/18 01:23:59;;;;;;;;;;;;;;;;;;5527921;26;19943;-72
2024/04/18 01:26:25;;;;;;;;;;;;;;;;;;5527797;26;19934;-73
2024/04/18 01:28:51;;;;;;;;;;;;;;;;;;5494604;26;19928;-72
2024/04/18 01:31:17;;;;;;;;;;;;;;;;;;5527300;26;19995;-72
2024/04/18 01:33:43;;;;;;;;;;;;;;;;;;5527624;26;19978;-72
2024/04/18 01:36:09;;;;;;;;;;;;;;;;;;5494010;26;19959;-73
2024/04/18 01:38:35;;;;;;;;;;;;;;;;;;5494639;26;20005;-73
2024/04/18 01:41:01;;;;;;;;;;;;;;;;;;5527166;26;20053;-73
2024/04/18 01:43:26;;;;;;;;;;;;;;;;;;5494048;26;19932;-73
2024/04/18 01:45:52;;;;;;;;;;;;;;;;;;5527046;26;20367;-72
2024/04/18 01:48:18;;;;;;;;;;;;;;;;;;5526965;26;20264;-72
2024/04/18 01:50:44;;;;;;;;;;;;;;;;;;5526591;26;20031;-71
2024/04/18 01:53:10;;;;;;;;;;;;;;;;;;5494418;26;20003;-73
2024/04/18 01:55:36;;;;;;;;;;;;;;;;;;5526928;26;19939;-73
2024/04/18 01:58:02;;;;;;;;;;;;;;;;;;5526317;26;19927;-72
2024/04/18 02:00:28;;;;;;;;;;;;;;;;;;5526694;26;19927;-72
2024/04/18 02:02:54;;;;;;;;;;;;;;;;;;5526753;26;19935;-72
2024/04/18 02:05:20;;;;;;;;;;;;;;;;;;5526237;26;20364;-72
2024/04/18 02:07:46;;;;;;;;;;;;;;;;;;5526876;26;20428;-72
2024/04/18 02:10:12;;;;;;;;;;;;;;;;;;5526658;26;20253;-72
2024/04/18 02:12:38;;;;;;;;;;;;;;;;;;5526094;26;19928;-72
2024/04/18 02:15:04;;;;;;;;;;;;;;;;;;5493900;26;19927;-72
2024/04/18 02:17:29;;;;;;;;;;;;;;;;;;5526457;26;19938;-73
2024/04/18 02:19:55;;;;;;;;;;;;;;;;;;5526058;26;19931;-72
2024/04/18 02:22:21;;;;;;;;;;;;;;;;;;5526340;26;19936;-72
2024/04/18 02:24:47;;;;;;;;;;;;;;;;;;5493399;26;19927;-72
2024/04/18 02:27:13;;;;;;;;;;;;;;;;;;5493635;26;20241;-72
2024/04/18 02:29:39;;;;;;;;;;;;;;;;;;5526326;26;20267;-71
2024/04/18 02:32:05;;;;;;;;;;;;;;;;;;5493100;26;19938;-70
2024/04/18 02:34:31;;;;;;;;;;;;;;;;;;5526137;26;19976;-70
2024/04/18 02:36:57;;;;;;;;;;;;;;;;;;5493404;26;19931;-71
2024/04/18 02:39:23;;;;;;;;;;;;;;;;;;5525848;26;19934;-71
2024/04/18 02:41:49;;;;;;;;;;;;;;;;;;5526310;26;19927;-71
2024/04/18 02:44:15;;;;;;;;;;;;;;;;;;5495521;26;19928;-71
2024/04/18 02:46:41;;;;;;;;;;;;;;;;;;5529629;26;19934;-71
2024/04/18 02:49:07;;;;;;;;;;;;;;;;;;5530095;26;19928;-71
2024/04/18 02:51:33;;;;;;;;;;;;;;;;;;5529860;26;20356;-71
2024/04/18 02:53:59;;;;;;;;;;;;;;;;;;5496922;26;19934;-71
2024/04/18 02:56:25;;;;;;;;;;;;;;;;;;5529820;26;20009;-71
2024/04/18 02:58:50;;;;;;;;;;;;;;;;;;5497330;26;19958;-71
2024/04/18 03:01:16;;;;;;;;;;;;;;;;;;5529570;26;19931;-71
2024/04/18 03:03:42;;;;;;;;;;;;;;;;;;5529782;26;19935;-71
2024/04/18 03:06:08;;;;;;;;;;;;;;;;;;5529802;26;19927;-71
2024/04/18 03:08:34;;;;;;;;;;;;;;;;;;5496758;26;20370;-71
2024/04/18 03:11:00;;;;;;;;;;;;;;;;;;5529724;26;19933;-71
2024/04/18 03:13:26;;;;;;;;;;;;;;;;;;5497149;26;20236;-71
2024/04/18 03:15:52;;;;;;;;;;;;;;;;;;5529098;26;19936;-71
2024/04/18 03:18:18;;;;;;;;;;;;;;;;;;5529584;26;19927;-71
2024/04/18 03:20:44;;;;;;;;;;;;;;;;;;5529636;26;19935;-71
2024/04/18 03:23:10;;;;;;;;;;;;;;;;;;5496497;26;19934;-71
2024/04/18 03:25:36;;;;;;;;;;;;;;;;;;5529610;26;19927;-71
2024/04/18 03:28:02;;;;;;;;;;;;;;;;;;5529012;26;19935;-71
2024/04/18 03:30:28;;;;;;;;;;;;;;;;;;5529509;26;20321;-71
2024/04/18 03:32:54;;;;;;;;;;;;;;;;;;5529231;26;20252;-71
2024/04/18 03:35:20;;;;;;;;;;;;;;;;;;5495901;26;19938;-71
2024/04/18 03:37:46;;;;;;;;;;;;;;;;;;5529267;26;19935;-71
2024/04/18 03:40:11;;;;;;;;;;;;;;;;;;5529366;26;19927;-71
2024/04/18 03:42:37;;;;;;;;;;;;;;;;;;5528784;26;19938;-71
2024/04/18 03:45:03;;;;;;;;;;;;;;;;;;5496714;26;20291;-71
2024/04/18 03:47:29;;;;;;;;;;;;;;;;;;5529158;26;19928;-71
2024/04/18 03:49:55;;;;;;;;;;;;;;;;;;5529141;26;19928;-71
2024/04/18 03:52:21;;;;;;;;;;;;;;;;;;5529136;26;20371;-71
2024/04/18 03:54:47;;;;;;;;;;;;;;;;;;5529075;26;20256;-71
2024/04/18 03:57:13;;;;;;;;;;;;;;;;;;5495993;26;19927;-71
2024/04/18 03:59:39;;;;;;;;;;;;;;;;;;5496215;26;19931;-71
2024/04/18 04:02:05;;;;;;;;;;;;;;;;;;5528964;26;19927;-71
2024/04/18 04:04:31;;;;;;;;;;;;;;;;;;5528528;26;20019;-71
2024/04/18 04:06:57;;;;;;;;;;;;;;;;;;5528812;26;19934;-71
2024/04/18 04:09:23;;;;;;;;;;;;;;;;;;5528867;26;20363;-72
2024/04/18 04:11:49;;;;;;;;;;;;;;;;;;5528544;26;20305;-71
2024/04/18 04:14:15;;;;;;;;;;;;;;;;;;5528637;26;19938;-71
2024/04/18 04:16:41;;;;;;;;;;;;;;;;;;5528663;26;19928;-71
2024/04/18 04:19:07;;;;;;;;;;;;;;;;;;5528046;26;19939;-71
2024/04/18 04:21:32;;;;;;;;;;;;;;;;;;5527929;26;19935;-72
2024/04/18 04:23:58;;;;;;;;;;;;;;;;;;5526021;26;20275;-72
2024/04/18 04:26:24;;;;;;;;;;;;;;;;;;5526197;26;19943;-71
2024/04/18 04:28:50;;;;;;;;;;;;;;;;;;5528451;26;19939;-71
2024/04/18 04:31:16;;;;;;;;;;;;;;;;;;5528459;26;19931;-71
2024/04/18 04:33:42;;;;;;;;;;;;;;;;;;5493744;26;19936;-71
2024/04/18 04:36:08;;;;;;;;;;;;;;;;;;5528117;26;19935;-71
2024/04/18 04:38:34;;;;;;;;;;;;;;;;;;5492487;26;19939;-71
2024/04/18 04:41:00;;;;;;;;;;;;;;;;;;5524731;26;19927;-71
2024/04/18 04:43:26;;;;;;;;;;;;;;;;;;5526605;26;19973;-71
2024/04/18 04:45:52;;;;;;;;;;;;;;;;;;5526058;26;19936;-71
2024/04/18 04:48:18;;;;;;;;;;;;;;;;;;5524303;26;19934;-71
2024/04/18 04:50:47;;;;;;;;;;;;;;;;;;5524399;26;19928;-72
2024/04/18 04:53:13;;;;;;;;;;;;;;;;;;5523817;26;19977;-72
2024/04/18 04:55:38;;;;;;;;;;;;;;;;;;5524151;26;20340;-73
2024/04/18 04:58:04;;;;;;;;;;;;;;;;;;5523860;26;19939;-71
2024/04/18 05:00:30;;;;;;;;;;;;;;;;;;5523510;26;19939;-71
2024/04/18 05:02:56;;;;;;;;;;;;;;;;;;5526549;26;19931;-71
2024/04/18 05:05:22;;;;;;;;;;;;;;;;;;5527689;26;19928;-71
2024/04/18 05:07:48;;;;;;;;;;;;;;;;;;5526239;26;19934;-71
2024/04/18 05:10:14;;;;;;;;;;;;;;;;;;5494862;26;19976;-71
2024/04/18 05:12:40;;;;;;;;;;;;;;;;;;5527469;26;19935;-71
2024/04/18 05:15:06;;;;;;;;;;;;;;;;;;5527047;26;20009;-71
2024/04/18 05:17:32;;;;;;;;;;;;;;;;;;5526366;26;19942;-72
2024/04/18 05:19:58;;;;;;;;;;;;;;;;;;5526645;26;19927;-70
2024/04/18 05:22:24;;;;;;;;;;;;;;;;;;5526035;26;19927;-70
2024/04/18 05:24:50;;;;;;;;;;;;;;;;;;5483287;26;19935;-70
2024/04/18 05:27:16;;;;;;;;;;;;;;;;;;5512652;26;20384;-70
2024/04/18 05:32:27;;;;;;;;;;;;;;;;;;5524785;26;19930;-71
2024/04/18 05:34:53;;;;;;;;;;;;;;;;;;5513188;26;20336;-71
2024/04/18 05:37:19;;;;;;;;;;;;;;;;;;5493359;26;20363;-70
2024/04/18 05:39:45;;;;;;;;;;;;;;;;;;5497321;26;20352;-71
2024/04/18 05:42:11;;;;;;;;;;;;;;;;;;5490934;26;19927;-71
2024/04/18 05:44:37;;;;;;;;;;;;;;;;;;5524656;26;19999;-71
2024/04/18 05:47:03;;;;;;;;;;;;;;;;;;5524854;26;19934;-71
2024/04/18 05:49:29;;;;;;;;;;;;;;;;;;5522296;26;19928;-71
2024/04/18 05:51:55;;;;;;;;;;;;;;;;;;5523910;26;19936;-70
2024/04/18 05:54:20;;;;;;;;;;;;;;;;;;5524730;26;19927;-71
2024/04/18 05:56:46;;;;;;;;;;;;;;;;;;5523867;26;19935;-71
2024/04/18 05:59:12;;;;;;;;;;;;;;;;;;5488033;26;19928;-71
2024/04/18 06:01:38;;;;;;;;;;;;;;;;;;5523482;26;20512;-71
2024/04/18 06:04:04;;;;;;;;;;;;;;;;;;5486308;26;20310;-71
2024/04/18 06:06:31;;;;;;;;;;;;;;;;;;5472500;26;19928;-71
2024/04/18 06:08:57;;;;;;;;;;;;;;;;;;5486970;26;19932;-72
2024/04/18 06:11:25;;;;;;;;;;;;;;;;;;5486116;26;19935;-71
2024/04/18 06:13:51;;;;;;;;;;;;;;;;;;5493687;26;19932;-72
2024/04/18 06:16:17;;;;;;;;;;;;;;;;;;5524592;26;19934;-72
2024/04/18 06:18:43;;;;;;;;;;;;;;;;;;5524674;26;19927;-72
2024/04/18 06:21:09;;;;;;;;;;;;;;;;;;5528459;26;19938;-71
2024/04/18 06:23:35;;;;;;;;;;;;;;;;;;5528981;26;19928;-72
2024/04/18 06:26:00;;;;;;;;;;;;;;;;;;5528325;26;19935;-71
2024/04/18 06:28:26;;;;;;;;;;;;;;;;;;5527492;26;19928;-71
2024/04/18 06:30:52;;;;;;;;;;;;;;;;;;5524940;26;19927;-70
2024/04/18 06:33:18;;;;;;;;;;;;;;;;;;5491923;26;19931;-69
2024/04/18 06:35:44;;;;;;;;;;;;;;;;;;5523858;26;19935;-71
2024/04/18 06:38:10;;;;;;;;;;;;;;;;;;5524383;26;19927;-72
2024/04/18 06:40:36;;;;;;;;;;;;;;;;;;5481513;26;19928;-72
2024/04/18 06:43:02;;;;;;;;;;;;;;;;;;5468273;26;19940;-72
2024/04/18 06:45:28;;;;;;;;;;;;;;;;;;5487951;26;19928;-73
2024/04/18 06:47:54;;;;;;;;;;;;;;;;;;5488374;26;19928;-72
2024/04/18 06:50:20;;;;;;;;;;;;;;;;;;5489590;26;19936;-72
2024/04/18 06:52:46;;;;;;;;;;;;;;;;;;5488004;26;19935;-72
2024/04/18 06:55:12;;;;;;;;;;;;;;;;;;5487619;26;20387;-73
2024/04/18 06:57:38;;;;;;;;;;;;;;;;;;5484216;26;20319;-73
2024/04/18 07:00:04;;;;;;;;;;;;;;;;;;5488552;26;19984;-72
2024/04/18 07:02:30;;;;;;;;;;;;;;;;;;5520545;26;19935;-73
2024/04/18 07:04:56;;;;;;;;;;;;;;;;;;5499788;26;19971;-72
2024/04/18 07:07:22;;;;;;;;;;;;;;;;;;5474681;26;20009;-72
2024/04/18 07:09:48;;;;;;;;;;;;;;;;;;5442980;26;20022;-73
2024/04/18 07:12:14;;;;;;;;;;;;;;;;;;5473728;26;20019;-73
2024/04/18 07:14:40;;;;;;;;;;;;;;;;;;5442881;26;19939;-73
2024/04/18 07:17:06;;;;;;;;;;;;;;;;;;5475870;26;19948;-73
2024/04/18 07:19:32;;;;;;;;;;;;;;;;;;5485501;26;20434;-74
2024/04/18 07:21:59;;;;;;;;;;;;;;;;;;5483021;26;19935;-73
2024/04/18 07:24:26;;;;;;;;;;;;;;;;;;5518953;26;19927;-71
2024/04/18 07:26:52;;;;;;;;;;;;;;;;;;5521124;26;19928;-73
2024/04/18 07:29:18;;;;;;;;;;;;;;;;;;5488335;26;19998;-73
2024/04/18 07:31:44;;;;;;;;;;;;;;;;;;5520222;26;19927;-71
2024/04/18 07:34:10;;;;;;;;;;;;;;;;;;5491225;26;19934;-72
2024/04/18 07:36:36;;;;;;;;;;;;;;;;;;5511046;26;19935;-72
2024/04/18 07:39:02;;;;;;;;;;;;;;;;;;5484704;26;19928;-70
2024/04/18 07:41:27;;;;;;;;;;;;;;;;;;5483746;26;19936;-70
2024/04/18 07:43:53;;;;;;;;;;;;;;;;;;5482991;26;19939;-70
2024/04/18 07:46:19;;;;;;;;;;;;;;;;;;5482742;26;19928;-72
2024/04/18 07:48:46;;;;;;;;;;;;;;;;;;5482846;26;19940;-72
2024/04/18 07:51:12;;;;;;;;;;;;;;;;;;5494950;26;20345;-71
2024/04/18 07:53:38;;;;;;;;;;;;;;;;;;5501017;26;19932;-71
2024/04/18 07:56:07;;;;;;;;;;;;;;;;;;5510884;26;19927;-71
2024/04/18 07:58:33;;;;;;;;;;;;;;;;;;5522904;26;19927;-73
2024/04/18 08:00:59;;;;;;;;;;;;;;;;;;5524060;26;19939;-72
2024/04/18 08:03:25;;;;;;;;;;;;;;;;;;5525404;26;19927;-71
2024/04/18 08:05:51;;;;;;;;;;;;;;;;;;5527367;26;19935;-72
2024/04/18 08:08:17;;;;;;;;;;;;;;;;;;5494604;26;20356;-70
2024/04/18 08:10:44;;;;;;;;;;;;;;;;;;5494148;26;19927;-71
2024/04/18 08:13:10;;;;;;;;;;;;;;;;;;5491410;26;20438;-74
2024/04/18 08:15:36;;;;;;;;;;;;;;;;;;5523990;26;20019;-72
2024/04/18 08:18:02;;;;;;;;;;;;;;;;;;5524552;26;19935;-72
2024/04/18 08:20:28;;;;;;;;;;;;;;;;;;5524612;26;19935;-72
2024/04/18 08:22:54;;;;;;;;;;;;;;;;;;5525617;26;19928;-70
2024/04/18 08:25:20;;;;;;;;;;;;;;;;;;5522886;26;19939;-71
2024/04/18 08:27:46;;;;;;;;;;;;;;;;;;5522582;26;20362;-71
2024/04/18 08:30:12;;;;;;;;;;;;;;;;;;5522693;26;19927;-71
2024/04/18 08:32:38;;;;;;;;;;;;;;;;;;5522829;26;19928;-72
2024/04/18 08:35:04;;;;;;;;;;;;;;;;;;5520873;26;19935;-72
2024/04/18 08:37:30;;;;;;;;;;;;;;;;;;5522597;26;19927;-73
2024/04/18 08:39:55;;;;;;;;;;;;;;;;;;5491137;26;19927;-72
2024/04/18 08:42:22;;;;;;;;;;;;;;;;;;5522277;26;19982;-72
2024/04/18 08:44:52;;;;;;;;;;;;;;;;;;5523233;26;20219;-71
2024/04/18 08:47:18;;;;;;;;;;;;;;;;;;5523194;26;20002;-72
2024/04/18 08:49:44;;;;;;;;;;;;;;;;;;5490819;26;20015;-72
2024/04/18 08:52:10;;;;;;;;;;;;;;;;;;5523021;26;19935;-72
2024/04/18 08:54:36;;;;;;;;;;;;;;;;;;5523517;26;19927;-73
2024/04/18 08:57:01;;;;;;;;;;;;;;;;;;5458292;26;20001;-72
2024/04/18 08:59:27;;;;;;;;;;;;;;;;;;5455213;26;19934;-72
2024/04/18 09:01:53;;;;;;;;;;;;;;;;;;5487060;26;19927;-71
2024/04/18 09:04:19;;;;;;;;;;;;;;;;;;5486615;26;19935;-71
2024/04/18 09:06:45;;;;;;;;;;;;;;;;;;5485838;26;19927;-72
2024/04/18 09:09:14;;;;;;;;;;;;;;;;;;5450346;26;19997;-71
2024/04/18 09:11:40;;;;;;;;;;;;;;;;;;5486228;26;19947;-72
2024/04/18 09:14:06;;;;;;;;;;;;;;;;;;5482431;26;20369;-72
2024/04/18 09:16:32;;;;;;;;;;;;;;;;;;5482616;26;19936;-71
2024/04/18 09:18:59;;;;;;;;;;;;;;;;;;5482065;26;19928;-70
2024/04/18 09:21:25;;;;;;;;;;;;;;;;;;5479997;26;19936;-71
2024/04/18 09:23:51;;;;;;;;;;;;;;;;;;5482412;26;19935;-72
2024/04/18 09:26:17;;;;;;;;;;;;;;;;;;5482081;26;19956;-71
2024/04/18 09:28:43;;;;;;;;;;;;;;;;;;5485985;26;19935;-72
2024/04/18 09:31:09;;;;;;;;;;;;;;;;;;5488730;26;19928;-70
2024/04/18 09:33:35;;;;;;;;;;;;;;;;;;5486445;26;19927;-71
2024/04/18 09:36:01;;;;;;;;;;;;;;;;;;5487396;26;19936;-71
2024/04/18 09:38:27;;;;;;;;;;;;;;;;;;5522652;26;19928;-70
2024/04/18 09:40:53;;;;;;;;;;;;;;;;;;5522457;26;20360;-71
2024/04/18 09:45:15;;;;;;;;;;;;;;;;;;5616191;25;20274;-71
2024/04/18 09:49:45;;;;;;;;;;;;;;;;;;5617199;25;20037;-72
2024/04/18 09:52:11;;;;;;;;;;;;;;;;;;5616131;25;19963;-72
2024/04/18 09:54:37;;;;;;;;;;;;;;;;;;5619478;25;20316;-72
2024/04/18 09:58:13;;;;;;;;;;;;;;;;;;5615490;25;19926;-71
2024/04/18 10:00:39;;;;;;;;;;;;;;;;;;5618829;25;19945;-72
2024/04/18 10:03:06;;;;;;;;;;;;;;;;;;5615475;25;19926;-72
2024/04/18 10:05:32;;;;;;;;;;;;;;;;;;5614659;25;19926;-73
2024/04/18 10:07:58;;;;;;;;;;;;;;;;;;5582790;25;19933;-71
2024/04/18 10:10:23;;;;;;;;;;;;;;;;;;5582359;25;19933;-72
2024/04/18 10:12:49;;;;;;;;;;;;;;;;;;5617830;25;20401;-72
2024/04/18 10:15:15;;;;;;;;;;;;;;;;;;5615199;25;20001;-72
2024/04/18 10:17:41;;;;;;;;;;;;;;;;;;5614971;25;20319;-72
2024/04/18 10:20:09;;;;;;;;;;;;;;;;;;5580867;25;19934;-73
2024/04/18 10:24:17;;;;;;;;;;;;;;;;;;5581978;25;19927;-71
2024/04/18 10:30:53;;;;;;;;;;;;;;;;;;5621144;25;19933;-71
2024/04/18 10:37:41;;;;;;;;;;;;;;;;;;5468610;26;19937;-72
2024/04/18 10:40:07;;;;;;;;;;;;;;;;;;5467262;26;19928;-72
2024/04/18 10:42:49;;;;;;;;;;;;;;;;;;5467312;26;19936;-71
2024/04/18 10:45:15;;;;;;;;;;;;;;;;;;5467030;26;19936;-72
2024/04/18 10:47:42;;;;;;;;;;;;;;;;;;5467250;26;19964;-72
2024/04/18 10:50:08;;;;;;;;;;;;;;;;;;5464758;26;19929;-72
2024/04/18 10:52:34;;;;;;;;;;;;;;;;;;5470383;26;20025;-72
2024/04/18 10:55:00;;;;;;;;;;;;;;;;;;5469603;26;19928;-72
2024/04/18 10:57:26;;;;;;;;;;;;;;;;;;5472286;26;19928;-72
2024/04/18 11:00:01;;;;;;;;;;;;;;;;;;5621135;25;19933;-72
2024/04/18 11:02:27;;;;;;;;;;;;;;;;;;5620611;25;19926;-74
2024/04/18 11:04:53;;;;;;;;;;;;;;;;;;5621908;25;19933;-72
2024/04/18 11:07:19;;;;;;;;;;;;;;;;;;5587608;25;19938;-72
2024/04/18 11:09:45;;;;;;;;;;;;;;;;;;5621800;25;19933;-73
2024/04/18 11:12:11;;;;;;;;;;;;;;;;;;5622236;25;19981;-73
2024/04/18 11:14:37;;;;;;;;;;;;;;;;;;5620229;25;20359;-73
2024/04/18 11:17:03;;;;;;;;;;;;;;;;;;5587094;25;19933;-74
2024/04/18 11:19:29;;;;;;;;;;;;;;;;;;5587679;25;19934;-73
2024/04/18 11:21:55;;;;;;;;;;;;;;;;;;5621528;25;19934;-72
2024/04/18 11:24:21;;;;;;;;;;;;;;;;;;5621132;25;19926;-73
2024/04/18 11:26:47;;;;;;;;;;;;;;;;;;5621533;25;19993;-72
2024/04/18 11:29:12;;;;;;;;;;;;;;;;;;5621947;25;20022;-73
2024/04/18 11:31:38;;;;;;;;;;;;;;;;;;5621958;25;19997;-73
2024/04/18 11:34:04;;;;;;;;;;;;;;;;;;5620759;25;19930;-73
2024/04/18 11:36:30;;;;;;;;;;;;;;;;;;5619413;25;19930;-74
2024/04/18 11:38:56;;;;;;;;;;;;;;;;;;5617708;25;19994;-73
2024/04/18 11:41:22;;;;;;;;;;;;;;;;;;5618158;25;19946;-73
2024/04/18 11:43:48;;;;;;;;;;;;;;;;;;5585940;25;19933;-73
2024/04/18 11:46:14;;;;;;;;;;;;;;;;;;5618084;25;19926;-73
2024/04/18 11:48:40;;;;;;;;;;;;;;;;;;5617562;25;19934;-74
2024/04/18 11:53:35;;;;;;;;;;;;;;;;;;5469055;26;19936;-73
2024/04/18 11:56:00;;;;;;;;;;;;;;;;;;5466474;26;20056;-73
2024/04/18 11:58:26;;;;;;;;;;;;;;;;;;5466908;26;20269;-72
2024/04/18 12:00:52;;;;;;;;;;;;;;;;;;5467320;26;19928;-73
2024/04/18 12:03:18;;;;;;;;;;;;;;;;;;5465008;26;19953;-73
2024/04/18 12:05:44;;;;;;;;;;;;;;;;;;5467363;26;20001;-73
2024/04/18 12:08:10;;;;;;;;;;;;;;;;;;5464688;26;19928;-73
2024/04/18 12:10:36;;;;;;;;;;;;;;;;;;5467876;26;19955;-73
2024/04/18 12:13:02;;;;;;;;;;;;;;;;;;5470889;26;20261;-73
2024/04/18 12:15:28;;;;;;;;;;;;;;;;;;5469117;26;19928;-73
2024/04/18 12:19:53;;;;;;;;;;;;;;;;;;5468849;26;19928;-73
2024/04/18 12:22:19;;;;;;;;;;;;;;;;;;5469336;26;19928;-73
2024/04/18 12:25:33;;;;;;;;;;;;;;;;;;5616392;25;19926;-73
2024/04/18 12:27:59;;;;;;;;;;;;;;;;;;5585209;25;19933;-72
2024/04/18 12:30:25;;;;;;;;;;;;;;;;;;5621527;25;20359;-70
2024/04/18 12:32:51;;;;;;;;;;;;;;;;;;5588458;25;19958;-72
2024/04/18 12:35:17;;;;;;;;;;;;;;;;;;5622129;25;19927;-72
2024/04/18 12:37:43;;;;;;;;;;;;;;;;;;5618560;25;19930;-72
2024/04/18 12:41:33;;;;;;;;;;;;;;;;;;5621370;25;19926;-72
2024/04/18 12:43:59;;;;;;;;;;;;;;;;;;5587437;25;20337;-72
2024/04/18 12:46:25;;;;;;;;;;;;;;;;;;5588096;25;19934;-72
2024/04/18 12:48:51;;;;;;;;;;;;;;;;;;5621989;25;20355;-73
2024/04/18 12:52:57;;;;;;;;;;;;;;;;;;5621038;25;19927;-72
2024/04/18 12:55:23;;;;;;;;;;;;;;;;;;5621614;25;20005;-71
2024/04/18 12:57:49;;;;;;;;;;;;;;;;;;5617159;25;20371;-72
2024/04/18 13:01:27;;;;;;;;;;;;;;;;;;5603317;25;19934;-72
2024/04/18 13:04:17;;;;;;;;;;;;;;;;;;5579406;25;20220;-72
2024/04/18 13:09:13;;;;;;;;;;;;;;;;;;5618092;25;19926;-73
2024/04/18 13:14:09;;;;;;;;;;;;;;;;;;5544063;25;19933;-72
2024/04/18 13:16:35;;;;;;;;;;;;;;;;;;5541555;25;19927;-73
2024/04/18 13:19:01;;;;;;;;;;;;;;;;;;5540045;25;19953;-73
2024/04/18 13:21:27;;;;;;;;;;;;;;;;;;5541633;25;19934;-72
2024/04/18 13:23:53;;;;;;;;;;;;;;;;;;5541477;25;19928;-72
2024/04/18 13:26:19;;;;;;;;;;;;;;;;;;5509185;25;20265;-73
2024/04/18 13:28:45;;;;;;;;;;;;;;;;;;5543138;25;19942;-72
2024/04/18 13:31:12;;;;;;;;;;;;;;;;;;5545114;25;19928;-72
2024/04/18 13:33:38;;;;;;;;;;;;;;;;;;5545878;25;19927;-73
2024/04/18 13:36:04;;;;;;;;;;;;;;;;;;5546432;25;20363;-73
2024/04/18 13:38:30;;;;;;;;;;;;;;;;;;5513278;25;20259;-73
2024/04/18 13:40:56;;;;;;;;;;;;;;;;;;5545793;25;19927;-73
2024/04/18 13:43:22;;;;;;;;;;;;;;;;;;5546251;25;19939;-72
2024/04/18 13:45:48;;;;;;;;;;;;;;;;;;5513564;25;20336;-73
2024/04/18 13:48:14;;;;;;;;;;;;;;;;;;5545907;25;19927;-74
2024/04/18 13:50:40;;;;;;;;;;;;;;;;;;5546288;25;19955;-73
2024/04/18 13:53:06;;;;;;;;;;;;;;;;;;5546150;25;19928;-73
2024/04/18 13:55:32;;;;;;;;;;;;;;;;;;5513145;25;20350;-74
2024/04/18 13:57:58;;;;;;;;;;;;;;;;;;5513448;25;20000;-73
2024/04/18 14:00:24;;;;;;;;;;;;;;;;;;5546284;25;20363;-72
2024/04/18 14:02:50;;;;;;;;;;;;;;;;;;5545820;25;19927;-73
2024/04/18 14:05:16;;;;;;;;;;;;;;;;;;5546222;25;19946;-73
2024/04/18 14:07:42;;;;;;;;;;;;;;;;;;5546170;25;19928;-73
2024/04/18 14:10:08;;;;;;;;;;;;;;;;;;5545637;25;19934;-73
2024/04/18 14:12:34;;;;;;;;;;;;;;;;;;5545707;25;19927;-73
2024/04/18 14:15:16;;;;;;;;;;;;;;;;;;5545535;25;19934;-73
2024/04/18 14:20:27;;;;;;;;;;;;;;;;;;5546154;25;19938;-72
2024/04/18 14:22:53;;;;;;;;;;;;;;;;;;5512282;25;19927;-73
2024/04/18 14:25:19;;;;;;;;;;;;;;;;;;5530479;25;19927;-72
2024/04/18 14:27:45;;;;;;;;;;;;;;;;;;5529605;26;19935;-72
2024/04/18 14:30:11;;;;;;;;;;;;;;;;;;5496238;26;19928;-72
2024/04/18 14:32:37;;;;;;;;;;;;;;;;;;5529290;26;19935;-72
2024/04/18 14:35:03;;;;;;;;;;;;;;;;;;5496863;26;19928;-72
2024/04/18 14:37:29;;;;;;;;;;;;;;;;;;5528837;26;20325;-72
2024/04/18 14:39:55;;;;;;;;;;;;;;;;;;5529440;26;19931;-73
2024/04/18 14:42:21;;;;;;;;;;;;;;;;;;5529368;26;19928;-72
2024/04/18 14:44:47;;;;;;;;;;;;;;;;;;5528892;26;20003;-72
2024/04/18 14:47:13;;;;;;;;;;;;;;;;;;5529252;26;20264;-72
2024/04/18 14:49:39;;;;;;;;;;;;;;;;;;5529143;26;20003;-72
2024/04/18 14:52:05;;;;;;;;;;;;;;;;;;5528787;26;19935;-72
2024/04/18 14:54:31;;;;;;;;;;;;;;;;;;5529178;26;19927;-73
2024/04/18 14:56:57;;;;;;;;;;;;;;;;;;5529199;26;19927;-73
2024/04/18 14:59:23;;;;;;;;;;;;;;;;;;5528600;26;19931;-72
2024/04/18 15:01:49;;;;;;;;;;;;;;;;;;5528730;26;20363;-72
2024/04/18 15:04:15;;;;;;;;;;;;;;;;;;5529095;26;20263;-72
2024/04/18 15:06:41;;;;;;;;;;;;;;;;;;5528588;26;19935;-72
2024/04/18 15:09:08;;;;;;;;;;;;;;;;;;5528976;26;20361;-72
2024/04/18 15:11:34;;;;;;;;;;;;;;;;;;5528494;26;19952;-72
2024/04/18 15:14:00;;;;;;;;;;;;;;;;;;5529067;26;19939;-73
2024/04/18 15:16:26;;;;;;;;;;;;;;;;;;5529172;26;20256;-71
2024/04/18 15:18:52;;;;;;;;;;;;;;;;;;5528762;26;19927;-71
2024/04/18 15:21:18;;;;;;;;;;;;;;;;;;5496393;26;19931;-71
2024/04/18 15:23:44;;;;;;;;;;;;;;;;;;5529096;26;19967;-71
2024/04/18 15:26:10;;;;;;;;;;;;;;;;;;5528659;26;19943;-71
2024/04/18 15:28:36;;;;;;;;;;;;;;;;;;5528927;26;19995;-71
2024/04/18 15:31:02;;;;;;;;;;;;;;;;;;5529116;26;19935;-72
2024/04/18 15:33:28;;;;;;;;;;;;;;;;;;5528537;26;19927;-72
2024/04/18 15:35:54;;;;;;;;;;;;;;;;;;5527305;26;19934;-71
2024/04/18 15:38:20;;;;;;;;;;;;;;;;;;5528997;26;19999;-72
2024/04/18 15:40:46;;;;;;;;;;;;;;;;;;5528554;26;20367;-72
2024/04/18 15:43:12;;;;;;;;;;;;;;;;;;5528996;26;19927;-72
2024/04/18 15:45:41;;;;;;;;;;;;;;;;;;5529030;26;19934;-72
2024/04/18 15:48:07;;;;;;;;;;;;;;;;;;5528163;26;19934;-73
2024/04/18 15:50:33;;;;;;;;;;;;;;;;;;5528761;26;19927;-72
2024/04/18 15:52:59;;;;;;;;;;;;;;;;;;5528789;26;19934;-72
2024/04/18 15:55:25;;;;;;;;;;;;;;;;;;5528268;26;19934;-73
2024/04/18 15:57:51;;;;;;;;;;;;;;;;;;5495940;26;20383;-73
2024/04/18 16:00:17;;;;;;;;;;;;;;;;;;5528507;26;20255;-73
2024/04/18 16:02:43;;;;;;;;;;;;;;;;;;5528332;26;19928;-73
2024/04/18 16:05:08;;;;;;;;;;;;;;;;;;5495734;26;19938;-73
2024/04/18 16:07:34;;;;;;;;;;;;;;;;;;5528691;26;19934;-73
2024/04/18 16:10:00;;;;;;;;;;;;;;;;;;5528354;26;19935;-74
2024/04/18 16:12:26;;;;;;;;;;;;;;;;;;5528136;26;20002;-73
2024/04/18 16:14:52;;;;;;;;;;;;;;;;;;5528024;26;19939;-74
2024/04/18 16:17:18;;;;;;;;;;;;;;;;;;5495520;26;19927;-72
2024/04/18 16:19:44;;;;;;;;;;;;;;;;;;5495608;26;19928;-72
2024/04/18 16:22:10;;;;;;;;;;;;;;;;;;5495126;26;20316;-73
2024/04/18 16:24:36;;;;;;;;;;;;;;;;;;5495610;26;20361;-73
2024/04/18 16:27:02;;;;;;;;;;;;;;;;;;5528322;26;20371;-73
2024/04/18 16:29:28;;;;;;;;;;;;;;;;;;5527502;26;20276;-73
2024/04/18 16:31:54;;;;;;;;;;;;;;;;;;5495191;26;19928;-74
2024/04/18 16:34:20;;;;;;;;;;;;;;;;;;5528241;26;19934;-73
2024/04/18 16:36:46;;;;;;;;;;;;;;;;;;5527204;26;19927;-72
2024/04/18 16:39:12;;;;;;;;;;;;;;;;;;5528375;26;19928;-73
2024/04/18 16:41:38;;;;;;;;;;;;;;;;;;5495530;26;19938;-73
2024/04/18 16:44:04;;;;;;;;;;;;;;;;;;5527616;26;19933;-73
2024/04/18 16:46:30;;;;;;;;;;;;;;;;;;5527636;26;19934;-74
2024/04/18 16:48:56;;;;;;;;;;;;;;;;;;5527868;26;19927;-74
2024/04/18 16:51:22;;;;;;;;;;;;;;;;;;5494883;26;20372;-73
2024/04/18 16:53:48;;;;;;;;;;;;;;;;;;5527951;26;19927;-74
2024/04/18 16:56:14;;;;;;;;;;;;;;;;;;5527856;26;19995;-73
2024/04/18 16:58:39;;;;;;;;;;;;;;;;;;5527418;26;19927;-74
2024/04/18 17:01:05;;;;;;;;;;;;;;;;;;5528389;26;19928;-73
2024/04/18 17:03:31;;;;;;;;;;;;;;;;;;5527875;26;19995;-73
2024/04/18 17:05:57;;;;;;;;;;;;;;;;;;5494721;26;19928;-73
2024/04/18 17:08:23;;;;;;;;;;;;;;;;;;5527693;26;19927;-73
2024/04/18 17:10:49;;;;;;;;;;;;;;;;;;5527437;26;19934;-74
2024/04/18 17:13:15;;;;;;;;;;;;;;;;;;5526714;26;19939;-73